Time;durP1;ratioP1;P1;durP2;ratioP2;P2;SDS_P1;SDS_P2;PMS_P1;PMS_P2;Temp;Humidity;BMP_temperature;BMP_pressure;BME280_temperature;BME280_humidity;BME280_pressure;Samples;Min_cycle;Max_cycle;Signal;HPM_P1;HPM_P2
2021/09/20 00:01:19;;;;;;;7.83;7.10;;;;;;;12.25;85.63;101030.66;4984218;28;20212;-76
2021/09/20 00:03:45;;;;;;;7.07;6.47;;;;;;;12.21;85.78;101036.84;4983869;28;20472;-76
2021/09/20 00:06:11;;;;;;;7.40;6.80;;;;;;;12.25;85.67;101028.03;4985572;28;20239;-76
2021/09/20 00:08:38;;;;;;;7.30;6.70;;;;;;;12.30;84.80;101058.50;4987716;28;20247;-77
2021/09/20 00:11:04;;;;;;;6.00;5.60;;;;;;;12.36;84.02;101090.72;4987762;28;20235;-74
2021/09/20 00:13:31;;;;;;;7.03;6.40;;;;;;;12.38;84.14;101108.13;4987578;28;20234;-76
2021/09/20 00:15:57;;;;;;;6.37;5.87;;;;;;;12.37;83.91;101119.50;4987497;28;20309;-75
2021/09/20 00:18:25;;;;;;;6.03;5.63;;;;;;;12.36;84.10;101111.66;4986967;28;20208;-74
2021/09/20 00:20:51;;;;;;;6.57;6.10;;;;;;;12.32;84.27;101108.22;4987199;28;20235;-76
2021/09/20 00:23:18;;;;;;;6.57;6.10;;;;;;;12.22;85.46;101063.00;4987929;28;20334;-76
2021/09/20 00:25:44;;;;;;;6.20;5.67;;;;;;;12.17;85.68;101049.13;4987411;28;20235;-76
2021/09/20 00:28:11;;;;;;;6.80;6.30;;;;;;;12.25;85.48;101038.50;4986817;28;20239;-74
2021/09/20 00:30:40;;;;;;;6.53;6.10;;;;;;;12.28;85.18;101055.03;4987638;28;20264;-76
2021/09/20 00:33:07;;;;;;;9.67;6.43;;;;;;;12.28;85.08;101062.03;4986493;28;20678;-77
2021/09/20 00:35:34;;;;;;;7.10;6.23;;;;;;;12.23;85.95;101043.78;4987330;28;20277;-76
2021/09/20 00:38:01;;;;;;;7.07;6.47;;;;;;;12.24;86.03;101048.13;4986786;28;20737;-75
2021/09/20 00:40:28;;;;;;;6.50;6.00;;;;;;;12.30;85.10;101063.72;4987029;28;20258;-76
2021/09/20 00:42:54;;;;;;;7.37;6.70;;;;;;;12.23;85.33;101064.72;4986887;28;20698;-76
2021/09/20 00:45:21;;;;;;;6.50;5.90;;;;;;;12.24;85.85;101047.28;4986870;28;20492;-75
2021/09/20 00:47:47;;;;;;;7.50;6.83;;;;;;;12.24;85.72;101049.88;4986963;28;20216;-76
2021/09/20 00:50:14;;;;;;;6.87;6.37;;;;;;;12.19;85.88;101039.50;4986873;28;20308;-77
2021/09/20 00:52:41;;;;;;;6.67;5.97;;;;;;;12.22;85.65;101049.03;4986514;28;20251;-76
2021/09/20 00:55:09;;;;;;;6.53;5.93;;;;;;;12.25;85.42;101054.22;4986082;28;20239;-75
2021/09/20 00:57:35;;;;;;;6.63;6.03;;;;;;;12.19;85.58;101051.69;4987270;28;20355;-77
2021/09/20 01:00:04;;;;;;;6.13;5.63;;;;;;;12.18;85.74;101049.97;4986647;28;20314;-76
2021/09/20 01:02:30;;;;;;;6.20;5.70;;;;;;;12.16;85.58;101050.00;4986816;28;20235;-75
2021/09/20 01:04:57;;;;;;;5.93;5.50;;;;;;;12.26;85.10;101074.28;4986482;28;20263;-76
2021/09/20 01:07:23;;;;;;;5.77;5.23;;;;;;;12.28;84.81;101090.81;4985915;28;20309;-76
2021/09/20 01:09:51;;;;;;;8.70;5.30;;;;;;;12.27;85.19;101076.03;4986744;28;20240;-75
2021/09/20 01:12:17;;;;;;;5.70;5.20;;;;;;;12.29;84.62;101098.66;4986555;28;20234;-76
2021/09/20 01:14:44;;;;;;;5.13;4.73;;;;;;;12.33;84.57;101112.56;4987049;28;20299;-77
2021/09/20 01:17:10;;;;;;;6.83;5.03;;;;;;;12.35;84.21;101115.16;4985096;28;20270;-76
2021/09/20 01:19:36;;;;;;;4.57;4.17;;;;;;;12.29;84.69;101108.28;4985735;28;20251;-77
2021/09/20 01:22:05;;;;;;;5.10;4.70;;;;;;;12.27;84.83;101097.81;4986483;28;20212;-77
2021/09/20 01:24:33;;;;;;;4.93;4.53;;;;;;;12.26;84.97;101096.09;4986090;28;20259;-75
2021/09/20 01:27:01;;;;;;;4.57;4.20;;;;;;;12.28;84.38;101109.16;4986089;28;20235;-76
2021/09/20 01:29:28;;;;;;;4.13;3.83;;;;;;;12.31;83.78;101125.69;4985574;28;20504;-74
2021/09/20 01:31:57;;;;;;;4.30;3.87;;;;;;;12.34;83.33;101139.63;4986354;28;20231;-75
2021/09/20 01:34:24;;;;;;;5.20;3.97;;;;;;;12.33;83.37;101151.84;4986315;28;20212;-76
2021/09/20 01:36:51;;;;;;;4.33;4.03;;;;;;;12.34;83.40;101155.31;4985806;28;20255;-76
2021/09/20 01:39:20;;;;;;;4.03;3.70;;;;;;;12.29;83.81;101135.31;4985272;28;20235;-75
2021/09/20 01:41:48;;;;;;;4.43;4.00;;;;;;;12.25;84.17;101117.03;4985962;28;20254;-75
2021/09/20 01:44:16;;;;;;;4.37;3.97;;;;;;;12.20;84.67;101098.78;4985425;28;20323;-74
2021/09/20 01:46:43;;;;;;;4.70;3.73;;;;;;;12.24;84.45;101104.84;4985639;28;20242;-76
2021/09/20 01:49:10;;;;;;;6.03;4.53;;;;;;;12.29;84.15;101113.50;4985369;28;20208;-75
2021/09/20 01:51:36;;;;;;;4.07;3.67;;;;;;;12.23;84.81;101106.63;4985355;28;20592;-75
2021/09/20 01:54:03;;;;;;;4.90;4.20;;;;;;;12.16;84.73;101094.50;4984956;28;20330;-76
2021/09/20 01:56:30;;;;;;;4.97;4.30;;;;;;;12.19;84.95;101081.38;4985619;28;20207;-76
2021/09/20 01:58:57;;;;;;;4.13;3.73;;;;;;;12.23;85.06;101090.91;4985208;28;20242;-75
2021/09/20 02:01:24;;;;;;;4.13;3.73;;;;;;;12.23;83.74;101119.69;4985740;28;20251;-75
2021/09/20 02:03:51;;;;;;;4.07;3.77;;;;;;;12.25;83.69;101128.41;4985199;28;20297;-76
2021/09/20 02:06:17;;;;;;;5.00;3.80;;;;;;;12.26;83.93;101148.44;4985398;28;20367;-76
2021/09/20 02:08:44;;;;;;;5.43;3.67;;;;;;;12.20;83.99;101135.44;4984934;28;20246;-75
2021/09/20 02:11:11;;;;;;;3.80;3.43;;;;;;;12.16;84.39;101117.19;4985639;28;20258;-76
2021/09/20 02:13:37;;;;;;;3.80;3.33;;;;;;;12.19;84.58;101111.91;4984927;28;20211;-76
2021/09/20 02:16:05;;;;;;;6.07;4.20;;;;;;;12.13;84.92;101099.78;4984530;28;20295;-75
2021/09/20 02:18:33;;;;;;;4.37;3.97;;;;;;;12.14;85.17;101100.66;4984925;28;20235;-75
2021/09/20 02:20:59;;;;;;;3.60;3.30;;;;;;;12.13;85.21;101097.19;4985376;28;20257;-76
2021/09/20 02:23:25;;;;;;;4.33;3.93;;;;;;;12.16;84.76;101110.19;4984587;28;20293;-76
2021/09/20 02:25:52;;;;;;;5.30;3.97;;;;;;;12.18;84.53;101116.28;4985462;28;20240;-74
2021/09/20 02:28:18;;;;;;;4.23;3.90;;;;;;;12.20;84.08;101131.97;4985310;28;20244;-76
2021/09/20 02:30:44;;;;;;;3.57;3.27;;;;;;;12.21;84.19;101147.66;4984144;28;20274;-76
2021/09/20 02:33:12;;;;;;;4.43;3.90;;;;;;;12.21;83.85;101147.66;4984192;28;20241;-75
2021/09/20 02:35:38;;;;;;;4.30;3.40;;;;;;;12.25;83.49;101161.53;4985558;28;20203;-76
2021/09/20 02:38:05;;;;;;;4.27;3.90;;;;;;;12.23;82.96;101165.94;4984559;28;20309;-75
2021/09/20 02:40:31;;;;;;;4.70;3.53;;;;;;;12.21;83.13;101178.16;4985163;28;20255;-75
2021/09/20 02:42:58;;;;;;;4.90;3.83;;;;;;;12.21;83.02;101163.34;4984415;28;20258;-76
2021/09/20 02:45:24;;;;;;;3.70;3.40;;;;;;;12.17;83.17;101166.91;4984890;28;21158;-76
2021/09/20 02:47:51;;;;;;;4.67;3.40;;;;;;;12.11;83.62;101165.22;4984596;28;21028;-76
2021/09/20 02:50:18;;;;;;;3.50;3.17;;;;;;;12.11;83.85;101161.75;4984568;28;20252;-75
2021/09/20 02:52:45;;;;;;;4.57;3.53;;;;;;;12.14;82.96;101174.78;4984463;28;20228;-76
2021/09/20 02:55:12;;;;;;;4.77;3.90;;;;;;;12.17;82.87;101190.47;4983058;28;20235;-73
2021/09/20 02:57:39;;;;;;;4.00;3.70;;;;;;;12.19;82.48;101201.78;4984783;28;20714;-75
2021/09/20 03:00:06;;;;;;;4.40;3.73;;;;;;;12.15;82.92;101183.50;4984495;28;20231;-76
2021/09/20 03:02:33;;;;;;;4.30;3.30;;;;;;;12.16;83.19;101173.00;4984168;28;20645;-76
2021/09/20 03:04:59;;;;;;;3.27;2.97;;;;;;;12.16;83.01;101191.34;4984611;28;20563;-75
2021/09/20 03:07:27;;;;;;;3.50;3.20;;;;;;;12.16;82.63;101203.56;4984815;28;20234;-76
2021/09/20 03:09:53;;;;;;;3.70;3.40;;;;;;;12.14;82.71;101207.94;4983568;28;20273;-76
2021/09/20 03:12:20;;;;;;;3.17;2.93;;;;;;;12.11;82.10;101227.19;4984558;28;20721;-74
2021/09/20 03:14:46;;;;;;;4.57;2.97;;;;;;;12.14;82.00;101234.13;4984363;28;20207;-76
2021/09/20 03:17:12;;;;;;;3.07;2.60;;;;;;;12.14;81.50;101241.97;4984299;28;20293;-75
2021/09/20 03:19:39;;;;;;;3.27;2.97;;;;;;;12.08;82.02;101249.00;4983770;28;20265;-75
2021/09/20 03:22:06;;;;;;;5.70;3.10;;;;;;;12.08;82.05;101246.38;4984594;28;20258;-76
2021/09/20 03:24:34;;;;;;;3.97;2.37;;;;;;;12.06;82.38;101232.47;4984399;28;20260;-76
2021/09/20 03:27:00;;;;;;;3.60;2.27;;;;;;;12.09;82.13;101231.53;4984153;28;20324;-76
2021/09/20 03:29:27;;;;;;;2.87;2.30;;;;;;;12.09;81.43;101253.38;4984140;28;20262;-74
2021/09/20 03:31:53;;;;;;;2.70;2.50;;;;;;;12.11;81.54;101262.06;4984826;28;20235;-76
2021/09/20 03:34:19;;;;;;;5.03;3.03;;;;;;;12.12;81.58;101262.94;4984132;28;20263;-75
2021/09/20 03:36:46;;;;;;;5.00;2.73;;;;;;;12.08;81.65;101259.47;4984184;28;20294;-76
2021/09/20 03:39:12;;;;;;;2.43;2.23;;;;;;;12.11;81.52;101264.69;4983941;28;20244;-76
2021/09/20 03:41:40;;;;;;;2.80;2.07;;;;;;;12.12;81.43;101269.00;4986423;28;20235;-76
2021/09/20 03:44:06;;;;;;;3.60;2.60;;;;;;;12.10;81.27;101267.31;4988365;28;20239;-74
2021/09/20 03:46:33;;;;;;;2.47;2.27;;;;;;;12.10;81.17;101281.25;4988672;28;20266;-76
2021/09/20 03:48:59;;;;;;;2.97;2.77;;;;;;;12.10;81.12;101283.88;4987232;28;20204;-76
2021/09/20 03:51:26;;;;;;;2.50;2.23;;;;;;;12.10;80.95;101290.88;4988101;28;20293;-75
2021/09/20 03:53:52;;;;;;;2.23;2.10;;;;;;;12.10;80.93;101294.34;4987025;28;20690;-76
2021/09/20 03:56:18;;;;;;;2.60;2.20;;;;;;;12.11;81.16;101287.38;4987857;28;20678;-76
2021/09/20 03:58:46;;;;;;;2.40;2.20;;;;;;;12.09;81.16;101290.00;4987913;28;20309;-75
2021/09/20 04:01:13;;;;;;;2.93;2.60;;;;;;;12.09;81.39;101282.16;4987934;28;20257;-76
2021/09/20 04:03:39;;;;;;;2.57;2.40;;;;;;;12.04;81.16;101281.31;4987327;28;20275;-77
2021/09/20 04:06:05;;;;;;;3.30;3.00;;;;;;;12.05;81.79;101269.09;4987504;28;20707;-76
2021/09/20 04:08:32;;;;;;;3.27;2.43;;;;;;;12.02;81.98;101246.47;4987134;28;20204;-77
2021/09/20 04:10:58;;;;;;;2.70;2.50;;;;;;;12.03;81.58;101256.06;4988632;28;20231;-76
2021/09/20 04:13:25;;;;;;;2.30;2.10;;;;;;;12.04;81.70;101268.25;4987953;28;20797;-75
2021/09/20 04:15:54;;;;;;;1.90;1.80;;;;;;;12.04;81.44;101273.47;4987962;28;20756;-77
2021/09/20 04:18:21;;;;;;;2.37;2.00;;;;;;;11.99;81.26;101279.66;4987662;28;20310;-76
2021/09/20 04:20:51;;;;;;;2.77;2.30;;;;;;;12.00;80.95;101290.09;4987896;28;20227;-76
2021/09/20 04:23:17;;;;;;;4.13;2.27;;;;;;;11.96;81.68;101271.84;4987613;28;20211;-76
2021/09/20 04:25:44;;;;;;;2.67;2.20;;;;;;;11.98;81.63;101280.53;4988002;28;20327;-75
2021/09/20 04:28:10;;;;;;;1.93;1.80;;;;;;;12.00;81.16;101292.72;4987637;28;20298;-75
2021/09/20 04:30:36;;;;;;;3.03;2.00;;;;;;;12.00;81.28;101304.94;4987343;28;20259;-76
2021/09/20 04:33:04;;;;;;;2.43;2.23;;;;;;;12.00;80.72;101305.81;4987094;28;20510;-76
2021/09/20 04:35:30;;;;;;;3.83;2.00;;;;;;;11.96;81.19;101305.84;4987945;28;20239;-76
2021/09/20 04:37:57;;;;;;;1.93;1.83;;;;;;;11.98;80.95;101310.19;4987177;28;20262;-76
2021/09/20 04:40:23;;;;;;;2.67;2.00;;;;;;;12.00;80.80;101313.66;4986451;28;20759;-74
2021/09/20 04:42:49;;;;;;;2.17;2.07;;;;;;;12.00;80.97;101325.88;4987197;28;20706;-76
2021/09/20 04:45:16;;;;;;;2.17;1.97;;;;;;;11.97;80.81;101325.91;4986944;28;20777;-76
2021/09/20 04:47:42;;;;;;;2.30;2.10;;;;;;;11.98;81.21;101325.88;4986418;28;20467;-75
2021/09/20 04:50:10;;;;;;;2.07;1.87;;;;;;;11.98;80.75;101332.88;4987055;28;20257;-76
2021/09/20 04:52:37;;;;;;;2.80;1.80;;;;;;;12.02;80.87;101331.97;4986210;28;20258;-76
2021/09/20 04:55:04;;;;;;;2.47;2.10;;;;;;;12.02;81.01;101332.81;4986086;28;20239;-76
2021/09/20 04:57:30;;;;;;;2.10;2.00;;;;;;;12.00;80.83;101339.81;4986031;28;20232;-74
2021/09/20 04:59:56;;;;;;;3.47;2.10;;;;;;;12.00;80.91;101346.81;4986395;28;20231;-74
2021/09/20 05:02:23;;;;;;;5.10;2.17;;;;;;;12.02;80.64;101348.53;4986865;28;20207;-76
2021/09/20 05:04:49;;;;;;;2.37;2.13;;;;;;;11.98;80.88;101335.50;4986879;28;20263;-76
2021/09/20 05:07:17;;;;;;;2.80;2.03;;;;;;;11.95;80.85;101325.91;4986747;28;20559;-77
2021/09/20 05:09:43;;;;;;;2.63;2.00;;;;;;;11.96;81.36;101319.81;4985810;28;20255;-75
2021/09/20 05:12:09;;;;;;;2.20;2.00;;;;;;;11.96;80.79;101339.88;4986472;28;20282;-74
2021/09/20 05:14:36;;;;;;;2.53;1.93;;;;;;;11.94;81.22;101339.03;4986490;28;20644;-76
2021/09/20 05:17:04;;;;;;;2.70;1.90;;;;;;;11.92;81.21;101339.88;4986332;28;20282;-76
2021/09/20 05:19:30;;;;;;;4.57;2.00;;;;;;;11.96;81.58;101337.25;4985488;28;20228;-75
2021/09/20 05:21:57;;;;;;;2.80;2.07;;;;;;;11.95;81.00;101327.66;4986576;28;20215;-76
2021/09/20 05:24:24;;;;;;;2.40;2.20;;;;;;;11.96;81.13;101339.88;4985508;28;20209;-76
2021/09/20 05:26:51;;;;;;;3.57;2.10;;;;;;;11.94;81.17;101324.19;4985141;28;20270;-76
2021/09/20 05:29:17;;;;;;;2.27;1.90;;;;;;;11.92;81.15;101332.03;4984608;28;20266;-76
2021/09/20 05:31:44;;;;;;;1.90;1.70;;;;;;;11.90;81.50;101330.34;4985242;28;20659;-76
2021/09/20 05:34:10;;;;;;;3.60;1.93;;;;;;;11.94;81.31;101337.25;4984506;28;20208;-76
2021/09/20 05:36:36;;;;;;;3.43;1.80;;;;;;;11.95;81.47;101338.97;4984803;28;20817;-76
2021/09/20 05:39:03;;;;;;;2.33;1.70;;;;;;;11.94;81.21;101337.25;4984422;28;20325;-76
2021/09/20 05:41:31;;;;;;;4.93;3.07;;;;;;;11.95;81.27;101335.50;4984823;28;20235;-75
2021/09/20 05:43:57;;;;;;;3.43;1.83;;;;;;;11.94;81.13;101346.88;4984271;28;20262;-74
2021/09/20 05:46:23;;;;;;;3.80;2.30;;;;;;;11.95;81.20;101333.75;4984353;28;20232;-78
2021/09/20 05:48:50;;;;;;;2.00;1.77;;;;;;;11.96;81.53;101342.50;4984072;28;20239;-77
2021/09/20 05:51:16;;;;;;;3.73;2.00;;;;;;;11.96;81.27;101345.09;4985166;28;20283;-77
2021/09/20 05:53:43;;;;;;;2.90;2.40;;;;;;;11.97;81.49;101352.06;4983687;28;20693;-78
2021/09/20 05:56:11;;;;;;;2.67;2.43;;;;;;;11.97;81.18;101355.56;4983997;28;20235;-78
2021/09/20 05:58:39;;;;;;;2.20;1.90;;;;;;;11.99;81.26;101364.25;4983778;28;20273;-77
2021/09/20 06:01:06;;;;;;;2.90;2.23;;;;;;;12.01;81.43;101356.38;4984291;28;20240;-76
2021/09/20 06:03:32;;;;;;;2.20;2.00;;;;;;;12.01;81.56;101359.88;4983367;28;20697;-78
2021/09/20 06:05:58;;;;;;;3.33;2.37;;;;;;;12.00;81.43;101362.50;4984211;28;20282;-78
2021/09/20 06:08:25;;;;;;;2.47;1.97;;;;;;;12.02;81.34;101363.34;4982764;28;20683;-75
2021/09/20 06:10:51;;;;;;;3.00;2.00;;;;;;;12.01;81.51;101359.00;4983606;28;20259;-78
2021/09/20 06:13:17;;;;;;;3.97;2.30;;;;;;;12.06;81.92;101351.97;4984727;28;20207;-78
2021/09/20 06:15:45;;;;;;;4.70;2.27;;;;;;;12.09;81.98;101349.31;4984109;28;20242;-78
2021/09/20 06:18:11;;;;;;;6.13;2.00;;;;;;;12.11;81.67;101366.75;4984188;28;20211;-78
2021/09/20 06:20:38;;;;;;;3.60;1.97;;;;;;;12.11;81.71;101358.91;4983174;28;20730;-78
2021/09/20 06:23:06;;;;;;;1.93;1.50;;;;;;;12.15;81.72;101364.97;4984657;28;20656;-76
2021/09/20 06:25:33;;;;;;;4.63;1.80;;;;;;;12.17;81.71;101357.97;4984167;28;20905;-78
2021/09/20 06:27:59;;;;;;;1.60;1.50;;;;;;;12.18;81.44;101370.16;4984227;28;20214;-79
2021/09/20 06:30:26;;;;;;;3.53;2.33;;;;;;;12.19;81.75;101366.69;4984563;28;20256;-77
2021/09/20 06:32:53;;;;;;;2.77;2.23;;;;;;;12.21;81.32;101367.53;4984912;28;20687;-80
2021/09/20 06:35:20;;;;;;;3.10;2.43;;;;;;;12.24;81.83;101354.38;4984375;28;20214;-79
2021/09/20 06:37:46;;;;;;;3.37;2.10;;;;;;;12.26;81.89;101357.84;4985005;28;20212;-78
2021/09/20 06:40:13;;;;;;;2.20;1.80;;;;;;;12.28;81.30;101363.94;4984966;28;20257;-77
2021/09/20 06:42:40;;;;;;;2.57;2.13;;;;;;;12.31;80.92;101378.75;4985003;28;20734;-77
2021/09/20 06:45:07;;;;;;;2.37;1.73;;;;;;;12.33;80.67;101390.09;4983598;28;20243;-79
2021/09/20 06:47:34;;;;;;;1.90;1.80;;;;;;;12.34;80.57;101391.81;4984256;28;20211;-75
2021/09/20 06:50:02;;;;;;;4.03;2.20;;;;;;;12.35;80.69;101395.28;4983164;28;20645;-78
2021/09/20 06:52:28;;;;;;;2.43;1.80;;;;;;;12.34;80.64;101389.19;4983883;28;20226;-78
2021/09/20 06:54:54;;;;;;;2.30;2.10;;;;;;;12.38;80.60;101395.25;4984175;28;20360;-77
2021/09/20 06:57:21;;;;;;;1.90;1.80;;;;;;;12.40;80.18;101399.59;4984909;28;20250;-76
2021/09/20 06:59:47;;;;;;;5.00;2.83;;;;;;;12.41;80.49;101395.25;4986048;28;20235;-80
2021/09/20 07:02:14;;;;;;;2.60;1.60;;;;;;;12.40;80.44;101399.59;4985972;28;20714;-78
2021/09/20 07:04:40;;;;;;;2.67;2.43;;;;;;;12.42;81.04;101394.34;4985283;28;20239;-80
2021/09/20 07:07:08;;;;;;;3.63;2.27;;;;;;;12.46;80.19;101411.75;4983998;28;20319;-79
2021/09/20 07:09:34;;;;;;;2.47;2.27;;;;;;;12.50;80.09;101410.81;4983640;28;20722;-77
2021/09/20 07:12:01;;;;;;;3.07;1.93;;;;;;;12.51;80.13;101412.56;4988338;28;20229;-79
2021/09/20 07:14:27;;;;;;;2.77;2.13;;;;;;;12.57;80.08;101425.59;4987289;28;20235;-79
2021/09/20 07:16:54;;;;;;;2.00;1.90;;;;;;;12.59;80.26;101421.22;4991005;28;20238;-78
2021/09/20 07:19:20;;;;;;;2.90;1.97;;;;;;;12.63;79.93;101422.06;4994733;28;20225;-79
2021/09/20 07:21:47;;;;;;;3.20;2.03;;;;;;;12.64;79.76;101427.25;4998453;28;20255;-79
2021/09/20 07:24:15;;;;;;;3.33;2.13;;;;;;;12.68;80.18;101421.09;4999031;28;20234;-80
2021/09/20 07:26:41;;;;;;;2.33;2.13;;;;;;;12.70;79.20;101447.28;4996018;28;20274;-76
2021/09/20 07:29:08;;;;;;;4.27;2.37;;;;;;;12.71;79.14;101454.25;4991027;28;20247;-78
2021/09/20 07:31:34;;;;;;;5.87;2.70;;;;;;;12.74;79.44;101448.97;4992187;28;20240;-77
2021/09/20 07:34:01;;;;;;;2.77;2.30;;;;;;;12.78;79.03;101465.53;4991251;28;20211;-76
2021/09/20 07:36:27;;;;;;;3.10;2.80;;;;;;;12.80;78.81;101469.84;4991051;28;20248;-77
2021/09/20 07:38:53;;;;;;;3.73;2.53;;;;;;;12.84;78.57;101468.97;4993398;28;20243;-77
2021/09/20 07:41:21;;;;;;;2.93;2.03;;;;;;;12.87;78.33;101502.13;4994793;28;20248;-78
2021/09/20 07:43:47;;;;;;;2.40;2.20;;;;;;;12.89;78.50;101498.59;4996256;28;20816;-78
2021/09/20 07:46:15;;;;;;;3.40;2.73;;;;;;;12.94;78.64;101508.13;4994393;28;20307;-77
2021/09/20 07:48:42;;;;;;;3.10;2.53;;;;;;;12.95;77.75;101520.38;4988539;28;20244;-77
2021/09/20 07:51:08;;;;;;;2.87;2.53;;;;;;;12.98;77.67;101542.16;4990283;28;20263;-78
2021/09/20 07:53:35;;;;;;;2.73;2.53;;;;;;;13.02;77.84;101550.84;4990685;28;20232;-78
2021/09/20 07:56:01;;;;;;;3.00;2.30;;;;;;;13.07;77.59;101554.31;4989208;28;20236;-79
2021/09/20 07:58:29;;;;;;;2.53;1.87;;;;;;;13.09;76.98;101566.50;4990349;28;20266;-78
2021/09/20 08:00:55;;;;;;;2.43;2.23;;;;;;;13.15;76.77;101580.44;4991637;28;20240;-78
2021/09/20 08:03:22;;;;;;;2.30;2.00;;;;;;;13.18;76.54;101588.25;4991281;28;20248;-78
2021/09/20 08:05:48;;;;;;;2.30;2.10;;;;;;;13.21;76.86;101570.72;4991486;28;20228;-78
2021/09/20 08:08:15;;;;;;;5.73;2.40;;;;;;;13.25;76.66;101596.03;4991099;28;20263;-79
2021/09/20 08:10:41;;;;;;;3.97;2.30;;;;;;;13.30;76.79;101575.06;4991815;28;20268;-77
2021/09/20 08:13:08;;;;;;;2.37;2.00;;;;;;;13.38;76.50;101577.56;4992472;28;20232;-76
2021/09/20 08:15:36;;;;;;;2.93;2.50;;;;;;;13.44;75.83;101622.97;4993930;28;20299;-80
2021/09/20 08:18:04;;;;;;;2.60;2.40;;;;;;;13.52;75.08;101641.22;4993101;28;20638;-78
2021/09/20 08:20:31;;;;;;;3.70;2.10;;;;;;;13.57;74.13;101680.53;4991261;28;20236;-79
2021/09/20 08:22:57;;;;;;;4.30;2.10;;;;;;;13.61;74.93;101669.97;4991952;28;20243;-76
2021/09/20 08:25:25;;;;;;;2.70;2.10;;;;;;;13.65;74.50;101669.03;4991974;28;20604;-78
2021/09/20 08:27:52;;;;;;;2.87;2.17;;;;;;;13.70;73.73;101709.22;4989255;28;20217;-79
2021/09/20 08:30:20;;;;;;;3.23;2.13;;;;;;;13.75;73.18;101717.03;4989159;28;20229;-78
2021/09/20 08:32:48;;;;;;;3.60;2.07;;;;;;;13.79;73.31;101707.38;4990047;28;20246;-77
2021/09/20 08:35:14;;;;;;;4.40;1.90;;;;;;;13.83;71.86;101756.31;4988153;28;20655;-76
2021/09/20 08:37:41;;;;;;;2.53;2.30;;;;;;;13.87;71.71;101785.16;4987417;28;20312;-77
2021/09/20 08:40:08;;;;;;;2.83;1.90;;;;;;;13.94;71.67;101792.97;4988702;28;20592;-78
2021/09/20 08:42:35;;;;;;;2.80;1.87;;;;;;;13.97;71.59;101785.03;4988591;28;20630;-76
2021/09/20 08:45:03;;;;;;;2.07;1.70;;;;;;;14.03;70.72;101822.59;4988246;28;20268;-79
2021/09/20 08:47:30;;;;;;;2.13;1.63;;;;;;;14.08;69.96;101848.81;4987598;28;20250;-79
2021/09/20 08:49:58;;;;;;;3.10;1.97;;;;;;;14.12;69.56;101862.78;4986150;28;20352;-80
2021/09/20 08:52:26;;;;;;;1.73;1.50;;;;;;;14.17;69.84;101861.84;4988056;28;20221;-78
2021/09/20 08:54:53;;;;;;;2.23;1.80;;;;;;;14.24;69.52;101871.38;4987362;28;20793;-76
2021/09/20 08:57:20;;;;;;;2.03;1.70;;;;;;;14.31;68.84;101890.59;4988518;28;20270;-78
2021/09/20 08:59:47;;;;;;;3.53;2.53;;;;;;;14.37;68.74;101910.63;4986980;28;20240;-79
2021/09/20 09:02:18;;;;;;;2.43;1.70;;;;;;;14.46;68.20;101934.19;4987772;28;21309;-77
2021/09/20 09:04:44;;;;;;;2.50;2.00;;;;;;;14.55;67.61;101941.97;4988095;28;20209;-77
2021/09/20 09:07:13;;;;;;;2.00;1.60;;;;;;;14.64;66.76;101978.69;4987754;28;20286;-77
2021/09/20 09:09:43;;;;;;;2.30;1.90;;;;;;;14.71;66.37;102000.53;4988082;28;20223;-80
2021/09/20 09:12:16;;;;;;;3.17;1.57;;;;;;;14.80;65.78;102023.22;4989078;28;20686;-80
2021/09/20 09:14:46;;;;;;;1.83;1.40;;;;;;;14.86;64.29;102065.19;4988668;28;20229;-79
2021/09/20 09:17:17;;;;;;;2.23;1.63;;;;;;;14.88;64.13;102087.97;4989170;28;20201;-79
2021/09/20 09:19:50;;;;;;;3.73;2.07;;;;;;;14.91;63.64;102123.03;4987915;28;20291;-78
2021/09/20 09:22:18;;;;;;;2.77;1.67;;;;;;;14.93;63.72;102118.63;4988101;28;20213;-80
2021/09/20 09:24:56;;;;;;;2.23;2.00;;;;;;;15.04;61.83;102179.84;4988812;28;20257;-80
2021/09/20 09:27:23;;;;;;;3.27;1.90;;;;;;;15.13;63.45;102134.19;4989089;28;20258;-79
2021/09/20 09:29:50;;;;;;;1.40;1.30;;;;;;;15.25;59.76;102252.44;4987205;28;20239;-78
2021/09/20 09:32:19;;;;;;;1.50;1.40;;;;;;;15.33;59.26;102297.97;4986226;28;20206;-76
2021/09/20 09:34:53;;;;;;;1.33;1.27;;;;;;;15.42;58.06;102344.38;4985484;28;20239;-77
2021/09/20 09:37:21;;;;;;;2.33;1.20;;;;;;;15.49;58.83;102330.28;4986368;28;20254;-79
2021/09/20 09:39:47;;;;;;;1.50;1.37;;;;;;;15.52;57.46;102358.31;4985674;28;20268;-78
2021/09/20 09:42:22;;;;;;;2.03;1.40;;;;;;;15.59;58.64;102310.00;4989902;28;20237;-80
2021/09/20 09:44:48;;;;;;;2.33;1.60;;;;;;;15.69;57.85;102346.75;4987312;28;20208;-77
2021/09/20 09:47:24;;;;;;;3.40;1.43;;;;;;;15.79;58.47;102294.91;4985717;28;20326;-78
2021/09/20 09:50:14;;;;;;;2.10;1.17;;;;;;;15.82;55.14;102439.72;4987818;28;20294;-79
2021/09/20 09:52:43;;;;;;;1.37;1.27;;;;;;;15.84;55.10;102460.78;4986337;28;20222;-79
2021/09/20 09:55:10;;;;;;;1.43;1.23;;;;;;;15.85;54.82;102478.31;4985997;28;20196;-78
2021/09/20 09:57:37;;;;;;;1.40;1.30;;;;;;;15.84;53.00;102545.06;4988307;28;20204;-79
2021/09/20 10:00:08;;;;;;;2.47;1.40;;;;;;;15.78;53.80;102522.25;4989246;28;20269;-79
2021/09/20 10:02:36;;;;;;;1.40;1.30;;;;;;;15.78;53.57;102514.38;4991251;28;20927;-79
2021/09/20 10:05:05;;;;;;;1.67;1.17;;;;;;;15.70;51.23;102603.03;4992693;28;20272;-79
2021/09/20 10:07:33;;;;;;;1.00;0.90;;;;;;;15.61;51.93;102605.72;4991578;28;20247;-78
2021/09/20 10:10:06;;;;;;;1.33;1.13;;;;;;;15.52;52.76;102566.25;4990803;28;20273;-77
2021/09/20 10:12:33;;;;;;;3.20;1.20;;;;;;;15.35;53.90;102500.56;4989952;28;20205;-79
2021/09/20 10:15:02;;;;;;;1.57;1.30;;;;;;;15.24;53.66;102487.47;4990225;28;20252;-78
2021/09/20 10:17:29;;;;;;;1.30;1.20;;;;;;;15.15;53.98;102466.47;4987620;28;20746;-77
2021/09/20 10:19:56;;;;;;;1.30;1.20;;;;;;;15.03;55.50;102396.41;4986228;28;20239;-79
2021/09/20 10:22:23;;;;;;;2.63;1.20;;;;;;;15.01;55.51;102388.53;4987966;28;20241;-78
2021/09/20 10:24:52;;;;;;;1.73;1.60;;;;;;;15.01;56.05;102367.47;4986051;28;20244;-76
2021/09/20 10:27:22;;;;;;;2.47;1.70;;;;;;;15.05;56.73;102342.91;4988260;28;20230;-78
2021/09/20 10:29:51;;;;;;;1.53;1.43;;;;;;;15.10;56.68;102332.34;4988036;28;20229;-78
2021/09/20 10:32:18;;;;;;;2.83;1.50;;;;;;;15.17;58.93;102238.47;4990750;28;20267;-78
2021/09/20 10:34:46;;;;;;;1.60;1.13;;;;;;;15.25;55.95;102341.88;4990484;28;20703;-79
2021/09/20 10:37:14;;;;;;;3.20;1.60;;;;;;;15.31;56.61;102355.00;4986970;28;20256;-79
2021/09/20 10:39:56;;;;;;;2.50;1.43;;;;;;;15.37;56.44;102340.91;4982555;28;20291;-78
2021/09/20 10:42:52;;;;;;;2.47;1.50;;;;;;;15.49;55.04;102375.03;4984204;28;20236;-79
2021/09/20 10:45:46;;;;;;;1.33;1.13;;;;;;;15.51;55.45;102396.94;4983564;28;20210;-77
2021/09/20 10:48:48;;;;;;;1.57;1.33;;;;;;;15.55;55.47;102395.16;4988005;28;21007;-79
2021/09/20 10:51:20;;;;;;;2.77;1.37;;;;;;;15.55;54.33;102401.28;4905712;29;20238;-79
2021/09/20 10:53:48;;;;;;;2.03;1.30;;;;;;;15.48;54.87;102420.66;4972241;28;20260;-79
2021/09/20 10:56:20;;;;;;;1.77;1.20;;;;;;;15.40;55.12;102380.34;4989776;28;20236;-79
2021/09/20 10:59:29;;;;;;;2.37;1.47;;;;;;;15.37;54.26;102414.59;4987626;28;20267;-78
2021/09/20 11:02:04;;;;;;;1.60;1.50;;;;;;;15.27;55.20;102380.44;4987040;28;20573;-79
2021/09/20 11:04:33;;;;;;;1.47;1.37;;;;;;;15.36;55.33;102374.25;4985899;28;20324;-78
2021/09/20 11:07:11;;;;;;;4.60;4.30;;;;;;;15.41;58.98;102198.75;4984272;28;20229;-79
2021/09/20 11:10:02;;;;;;;2.10;1.90;;;;;;;15.56;56.35;102291.59;4985903;28;20278;-78
2021/09/20 11:12:29;;;;;;;2.90;2.70;;;;;;;15.64;55.45;102347.72;4294517;28;10000827;-77
2021/09/20 11:15:12;;;;;;;1.77;1.67;;;;;;;15.65;57.58;102237.09;4981457;28;20659;-77
2021/09/20 11:17:44;;;;;;;1.60;1.50;;;;;;;15.71;55.68;102323.03;4981543;28;20650;-79
2021/09/20 11:20:36;;;;;;;1.47;1.37;;;;;;;15.78;54.47;102387.97;4981284;28;20320;-76
2021/09/20 11:23:19;;;;;;;2.13;1.97;;;;;;;15.82;54.34;102409.88;4981607;28;20217;-79
2021/09/20 11:26:15;;;;;;;2.07;1.77;;;;;;;15.89;54.50;102382.59;4981956;28;20209;-77
2021/09/20 11:28:46;;;;;;;1.60;1.50;;;;;;;15.96;53.79;102407.13;4982585;28;20246;-78